Time;durP1;ratioP1;P1;durP2;ratioP2;P2;SDS_P1;SDS_P2;PMS_P1;PMS_P2;Temp;Humidity;BMP_temperature;BMP_pressure;BME280_temperature;BME280_humidity;BME280_pressure;Samples;Min_cycle;Max_cycle;Signal;HPM_P1;HPM_P2
2022/04/22 00:01:10;;;;;;;51.77;20.00;;;8.90;97.30;;;;;;5121227;28;20684;-83
2022/04/22 00:03:35;;;;;;;48.43;18.80;;;8.90;97.30;;;;;;5122140;28;20178;-83
2022/04/22 00:06:01;;;;;;;54.07;22.03;;;8.90;97.30;;;;;;5124081;28;20198;-83
2022/04/22 00:08:27;;;;;;;48.43;18.13;;;8.90;97.30;;;;;;5123979;28;20229;-83
2022/04/22 00:13:36;;;;;;;54.53;18.97;;;8.90;97.30;;;;;;5127675;28;20394;-83
2022/04/22 00:16:03;;;;;;;45.83;19.00;;;8.90;97.30;;;;;;5123310;28;20427;-83
2022/04/22 00:18:31;;;;;;;56.40;21.90;;;8.90;97.30;;;;;;5123978;28;20257;-82
2022/04/22 00:20:57;;;;;;;51.60;19.80;;;8.90;97.30;;;;;;5124111;28;20447;-83
2022/04/22 00:23:22;;;;;;;55.77;22.13;;;8.90;97.30;;;;;;5124622;28;20408;-83
2022/04/22 00:25:48;;;;;;;51.73;20.20;;;8.90;97.30;;;;;;5124417;28;20194;-83
2022/04/22 00:28:14;;;;;;;58.23;19.80;;;8.90;97.30;;;;;;5124876;28;20204;-82
2022/04/22 00:30:39;;;;;;;49.30;20.03;;;8.90;97.30;;;;;;5124881;28;20194;-82
2022/04/22 00:33:06;;;;;;;54.57;19.90;;;8.90;97.30;;;;;;5124098;28;20178;-82
2022/04/22 00:35:31;;;;;;;52.07;21.70;;;8.90;97.30;;;;;;5123264;28;20198;-82
2022/04/22 00:37:58;;;;;;;56.43;21.40;;;8.80;97.30;;;;;;5123145;28;20411;-83
2022/04/22 00:40:24;;;;;;;61.17;20.63;;;8.80;97.30;;;;;;5122952;28;20197;-82
2022/04/22 00:42:50;;;;;;;55.23;19.83;;;8.80;97.30;;;;;;5124092;28;20412;-82
2022/04/22 00:45:18;;;;;;;55.40;21.47;;;8.80;97.30;;;;;;5123024;28;20224;-82
2022/04/22 00:47:43;;;;;;;57.17;21.97;;;8.80;97.30;;;;;;5122818;28;20426;-82
2022/04/22 00:50:09;;;;;;;54.17;19.03;;;8.80;97.30;;;;;;5123056;28;20448;-82
2022/04/22 00:52:35;;;;;;;51.97;18.80;;;8.80;97.30;;;;;;5123815;28;20704;-83
2022/04/22 00:55:01;;;;;;;58.57;22.13;;;8.80;97.30;;;;;;5123134;28;20220;-82
2022/04/22 00:57:28;;;;;;;59.30;21.10;;;8.80;97.30;;;;;;5123333;28;20229;-83
2022/04/22 00:59:53;;;;;;;58.63;20.63;;;8.80;97.30;;;;;;5123175;28;20415;-83
2022/04/22 01:02:19;;;;;;;55.60;19.87;;;8.80;97.30;;;;;;5122836;28;20423;-83
2022/04/22 01:10:13;;;;;;;58.33;20.40;;;8.80;97.30;;;;;;5124183;28;20572;-83
2022/04/22 01:12:39;;;;;;;44.70;18.37;;;8.80;97.30;;;;;;5122339;28;20452;-83
2022/04/22 01:15:05;;;;;;;56.77;20.47;;;8.80;97.30;;;;;;5121160;28;20193;-83
2022/04/22 01:17:31;;;;;;;62.00;20.67;;;8.80;97.30;;;;;;5123340;28;20193;-83
2022/04/22 01:19:57;;;;;;;56.00;21.57;;;8.80;97.30;;;;;;5123581;28;20499;-83
2022/04/22 01:22:23;;;;;;;51.03;18.30;;;8.80;97.30;;;;;;5122680;28;20447;-83
2022/04/22 01:24:52;;;;;;;54.57;22.13;;;8.80;97.30;;;;;;5121895;28;20202;-82
2022/04/22 01:27:18;;;;;;;61.10;22.63;;;8.80;97.30;;;;;;5122277;28;20181;-82
2022/04/22 01:29:44;;;;;;;55.97;20.57;;;8.70;97.30;;;;;;5121878;28;20864;-82
2022/04/22 01:32:10;;;;;;;64.30;23.00;;;8.70;97.30;;;;;;5122032;28;20561;-82
2022/04/22 01:34:37;;;;;;;49.47;19.63;;;8.70;97.30;;;;;;5122698;28;20198;-82
2022/04/22 01:37:02;;;;;;;57.37;20.63;;;8.70;97.30;;;;;;5123013;28;20161;-83
2022/04/22 01:39:30;;;;;;;52.40;18.60;;;8.70;97.30;;;;;;5121886;28;20473;-81
2022/04/22 01:41:55;;;;;;;53.63;18.40;;;8.80;97.30;;;;;;5121599;28;20557;-81
2022/04/22 01:44:21;;;;;;;56.07;19.80;;;8.80;97.30;;;;;;5121654;28;20436;-81
2022/04/22 01:46:47;;;;;;;55.07;20.07;;;8.80;97.30;;;;;;5121639;28;20185;-81
2022/04/22 01:49:12;;;;;;;52.10;20.20;;;8.80;97.30;;;;;;5121743;28;20178;-82
2022/04/22 01:51:38;;;;;;;55.43;20.40;;;8.80;97.30;;;;;;5123364;28;20166;-82
2022/04/22 01:54:04;;;;;;;59.90;21.07;;;8.80;97.30;;;;;;5122874;28;20193;-82
2022/04/22 01:56:30;;;;;;;52.23;18.60;;;8.80;97.30;;;;;;5123025;28;20404;-82
2022/04/22 01:58:55;;;;;;;54.80;20.00;;;8.80;97.30;;;;;;5122275;28;20186;-81
2022/04/22 02:01:21;;;;;;;52.37;19.30;;;8.80;97.30;;;;;;5122273;28;20331;-81
2022/04/22 02:03:46;;;;;;;55.60;22.00;;;8.80;97.30;;;;;;5121620;28;20255;-82
2022/04/22 02:06:12;;;;;;;49.07;18.60;;;8.80;97.30;;;;;;5121329;28;20544;-82
2022/04/22 02:08:38;;;;;;;57.67;19.53;;;8.80;97.30;;;;;;5121248;28;20221;-82
2022/04/22 02:11:04;;;;;;;57.30;22.20;;;8.80;97.30;;;;;;5121342;28;20205;-81
2022/04/22 02:13:34;;;;;;;61.77;22.57;;;8.80;97.30;;;;;;5122378;28;20166;-82
2022/04/22 02:15:59;;;;;;;52.37;19.60;;;8.80;97.30;;;;;;5121908;28;20488;-82
2022/04/22 02:18:25;;;;;;;54.57;19.27;;;8.80;97.30;;;;;;5121532;28;20420;-82
2022/04/22 02:20:50;;;;;;;49.97;19.77;;;8.80;97.30;;;;;;5121431;28;20209;-82
2022/04/22 02:23:17;;;;;;;51.63;19.70;;;8.80;97.30;;;;;;5121332;28;20178;-82
2022/04/22 02:25:42;;;;;;;54.93;20.80;;;8.80;97.30;;;;;;5121710;28;20198;-82
2022/04/22 02:30:52;;;;;;;49.57;18.97;;;8.80;97.30;;;;;;5125633;28;20196;-83
2022/04/22 02:33:18;;;;;;;58.27;21.77;;;8.70;97.30;;;;;;5124766;28;20502;-85
2022/04/22 02:35:44;;;;;;;58.63;20.07;;;8.70;97.30;;;;;;5123822;28;20213;-83
2022/04/22 02:38:10;;;;;;;55.13;19.40;;;8.70;97.30;;;;;;5125145;28;20416;-83
2022/04/22 02:46:04;;;;;;;49.70;17.20;;;8.70;97.30;;;;;;5125941;28;20423;-83
2022/04/22 02:48:29;;;;;;;55.90;19.87;;;8.70;97.30;;;;;;5124308;28;20407;-84
2022/04/22 02:50:55;;;;;;;54.53;19.70;;;8.70;97.30;;;;;;5126010;28;20205;-83
2022/04/22 02:53:22;;;;;;;56.17;21.13;;;8.70;97.30;;;;;;5123903;28;20199;-83
2022/04/22 02:55:51;;;;;;;59.30;21.60;;;8.70;97.30;;;;;;5125195;28;20193;-83
2022/04/22 02:58:17;;;;;;;53.57;20.97;;;8.70;97.30;;;;;;5125957;28;20485;-83
2022/04/22 03:00:49;;;;;;;58.70;20.60;;;8.70;97.30;;;;;;5124365;28;20412;-83
2022/04/22 03:03:15;;;;;;;58.10;21.83;;;8.70;97.30;;;;;;5124272;28;20399;-84
2022/04/22 03:05:41;;;;;;;54.97;21.67;;;8.70;97.30;;;;;;5124151;28;20428;-83
2022/04/22 03:08:10;;;;;;;51.63;21.00;;;8.70;97.30;;;;;;5124349;28;20470;-83
2022/04/22 03:10:36;;;;;;;55.37;20.70;;;8.70;97.30;;;;;;5125630;28;20948;-83
2022/04/22 03:13:03;;;;;;;55.47;20.27;;;8.70;97.30;;;;;;5124163;28;20410;-82
2022/04/22 03:15:30;;;;;;;53.03;20.10;;;8.70;97.30;;;;;;5123538;28;20436;-83
2022/04/22 03:17:55;;;;;;;60.70;22.60;;;8.70;97.30;;;;;;5124578;28;20442;-84
2022/04/22 03:20:21;;;;;;;61.00;25.13;;;8.80;97.30;;;;;;5122854;28;20416;-84
2022/04/22 03:22:47;;;;;;;56.17;21.10;;;8.80;97.30;;;;;;5120213;28;20646;-83
2022/04/22 03:25:13;;;;;;;61.97;21.47;;;8.80;97.30;;;;;;5120256;28;20246;-83
2022/04/22 03:27:38;;;;;;;58.20;22.30;;;8.80;97.30;;;;;;5120970;28;20198;-83
2022/04/22 03:30:05;;;;;;;62.93;21.90;;;8.80;97.30;;;;;;5120645;28;20227;-83
2022/04/22 03:32:30;;;;;;;64.77;22.50;;;8.80;97.30;;;;;;5120848;28;20170;-83
2022/04/22 03:34:56;;;;;;;66.10;24.60;;;8.80;97.30;;;;;;5122329;28;20446;-83
2022/04/22 03:37:22;;;;;;;56.80;21.60;;;8.80;97.30;;;;;;5120529;28;20176;-83
2022/04/22 03:39:47;;;;;;;56.67;21.00;;;8.80;97.30;;;;;;5125954;28;20178;-83
2022/04/22 03:42:13;;;;;;;64.77;22.57;;;8.80;97.30;;;;;;5124435;28;20178;-83
2022/04/22 03:44:39;;;;;;;59.00;23.30;;;8.80;97.30;;;;;;5124313;28;20570;-82
2022/04/22 03:47:07;;;;;;;60.27;22.50;;;8.80;97.30;;;;;;5124652;28;20422;-82
2022/04/22 03:49:33;;;;;;;59.70;23.07;;;8.80;97.30;;;;;;5124260;28;20182;-83
2022/04/22 03:51:59;;;;;;;56.40;21.30;;;8.80;97.30;;;;;;5124466;28;20442;-83
2022/04/22 03:54:25;;;;;;;56.03;22.47;;;8.80;97.30;;;;;;5126141;28;20423;-83
2022/04/22 03:59:35;;;;;;;59.87;22.93;;;8.80;97.30;;;;;;5127380;28;20391;-83
2022/04/22 04:02:02;;;;;;;69.77;24.07;;;8.90;97.30;;;;;;5126276;28;20404;-83
2022/04/22 04:04:27;;;;;;;54.97;20.73;;;8.90;97.30;;;;;;5124501;28;20292;-83
2022/04/22 04:06:53;;;;;;;70.27;23.10;;;8.90;97.30;;;;;;5125334;28;20435;-83
2022/04/22 04:17:36;;;;;;;70.10;23.43;;;8.90;97.30;;;;;;5125956;28;20419;-82
2022/04/22 04:25:34;;;;;;;74.03;23.20;;;8.90;97.30;;;;;;5125913;28;20427;-83
2022/04/22 04:28:00;;;;;;;58.77;22.43;;;8.90;97.30;;;;;;5124283;28;20423;-83
2022/04/22 04:30:26;;;;;;;56.47;20.87;;;8.90;97.30;;;;;;5124146;28;20204;-83
2022/04/22 04:32:51;;;;;;;67.60;22.43;;;8.90;97.30;;;;;;5125103;28;20170;-83
2022/04/22 04:35:17;;;;;;;57.83;22.37;;;8.90;97.30;;;;;;5126433;28;20189;-83
2022/04/22 04:37:43;;;;;;;69.53;23.10;;;8.90;97.30;;;;;;5126367;28;20181;-83
2022/04/22 04:40:09;;;;;;;59.13;23.43;;;8.90;97.30;;;;;;5124731;28;20554;-83
2022/04/22 04:42:35;;;;;;;57.43;22.10;;;8.90;97.30;;;;;;5125973;28;20202;-83
2022/04/22 04:45:01;;;;;;;58.70;21.90;;;8.90;97.30;;;;;;5125853;28;20815;-82
2022/04/22 04:47:27;;;;;;;58.93;22.10;;;8.90;97.30;;;;;;5122895;28;20184;-82
2022/04/22 04:49:52;;;;;;;59.80;22.57;;;8.90;97.30;;;;;;5121931;28;20202;-82
2022/04/22 04:52:18;;;;;;;59.90;23.40;;;8.90;97.30;;;;;;5122767;28;20181;-83
2022/04/22 04:54:46;;;;;;;65.33;24.30;;;8.90;97.30;;;;;;5122691;28;20194;-83
2022/04/22 04:57:11;;;;;;;64.40;24.33;;;8.90;97.30;;;;;;5123923;28;20187;-83
2022/04/22 04:59:37;;;;;;;63.60;23.13;;;8.90;97.30;;;;;;5123291;28;20424;-83
2022/04/22 05:02:18;;;;;;;58.70;21.70;;;8.90;97.30;;;;;;5122466;28;20206;-83
2022/04/22 05:04:43;;;;;;;61.57;22.73;;;8.90;97.30;;;;;;5123229;28;20253;-83
2022/04/22 05:07:09;;;;;;;65.13;23.00;;;8.90;97.30;;;;;;5123110;28;20498;-82
2022/04/22 05:09:34;;;;;;;62.87;22.47;;;9.00;97.30;;;;;;5123468;28;20232;-83
2022/04/22 05:12:00;;;;;;;65.60;23.40;;;8.90;97.30;;;;;;5123155;28;20613;-83
2022/04/22 05:14:26;;;;;;;68.40;24.30;;;9.00;97.30;;;;;;5123102;28;20185;-83
2022/04/22 05:16:54;;;;;;;68.80;25.53;;;9.00;97.30;;;;;;5123015;28;20419;-83
2022/04/22 05:19:21;;;;;;;64.57;23.73;;;9.00;97.30;;;;;;5122752;28;20165;-83
2022/04/22 05:21:47;;;;;;;66.90;23.93;;;9.00;97.30;;;;;;5122953;28;20443;-82
2022/04/22 05:24:13;;;;;;;59.30;22.20;;;9.00;97.30;;;;;;5122120;28;20427;-83
2022/04/22 05:26:38;;;;;;;62.93;24.47;;;9.00;97.30;;;;;;5122467;28;20173;-83
2022/04/22 05:29:04;;;;;;;53.43;22.87;;;9.00;97.30;;;;;;5120999;28;20688;-83
2022/04/22 05:34:14;;;;;;;63.77;22.70;;;9.00;97.30;;;;;;5123680;28;20196;-83
2022/04/22 05:36:39;;;;;;;66.77;23.93;;;9.00;97.30;;;;;;5121181;28;20408;-83
2022/04/22 05:39:08;;;;;;;63.47;22.67;;;9.10;97.30;;;;;;5121797;28;20173;-83
2022/04/22 05:41:35;;;;;;;65.03;24.33;;;9.10;97.30;;;;;;5120468;28;20181;-83
2022/04/22 05:44:02;;;;;;;64.00;22.50;;;9.10;97.30;;;;;;5123216;28;20431;-83
2022/04/22 05:46:28;;;;;;;64.37;24.10;;;9.10;97.30;;;;;;5123630;28;20411;-84
2022/04/22 05:48:54;;;;;;;60.00;21.43;;;9.10;97.30;;;;;;5121742;28;20418;-83
2022/04/22 05:51:19;;;;;;;66.13;23.30;;;9.10;97.30;;;;;;5121794;28;20242;-83
2022/04/22 05:53:48;;;;;;;55.53;21.27;;;9.20;97.30;;;;;;5121899;28;20178;-83
2022/04/22 05:56:13;;;;;;;59.40;22.77;;;9.20;97.30;;;;;;5121431;28;20177;-83
2022/04/22 05:58:39;;;;;;;57.07;21.30;;;9.20;97.30;;;;;;5121808;28;20443;-83
2022/04/22 06:01:04;;;;;;;57.10;22.37;;;9.20;97.30;;;;;;5121317;28;20209;-83
2022/04/22 06:03:30;;;;;;;56.50;21.80;;;9.20;97.30;;;;;;5120553;28;20170;-84
2022/04/22 06:05:56;;;;;;;64.03;22.83;;;9.30;97.30;;;;;;5121005;28;20204;-83
2022/04/22 06:11:06;;;;;;;57.67;22.03;;;9.40;97.30;;;;;;5121961;28;20446;-83
2022/04/22 06:13:31;;;;;;;59.87;22.33;;;9.40;97.30;;;;;;5120165;28;20420;-84
2022/04/22 06:15:57;;;;;;;54.50;21.77;;;9.50;97.30;;;;;;5121210;28;20281;-82
2022/04/22 06:18:23;;;;;;;56.10;21.70;;;9.50;97.30;;;;;;5120657;28;20185;-83
2022/04/22 06:20:50;;;;;;;61.87;23.00;;;9.60;97.30;;;;;;5119685;28;20924;-82
2022/04/22 06:23:16;;;;;;;57.03;22.77;;;9.60;97.30;;;;;;5121117;28;20178;-83
2022/04/22 06:25:45;;;;;;;52.87;21.50;;;9.70;97.30;;;;;;5120124;28;20439;-82
2022/04/22 06:28:12;;;;;;;58.57;22.97;;;9.70;97.30;;;;;;5119889;28;20177;-83
2022/04/22 06:30:40;;;;;;;59.03;23.40;;;9.80;97.30;;;;;;5120913;28;20475;-82
2022/04/22 06:33:06;;;;;;;57.40;22.90;;;9.90;97.30;;;;;;5119747;28;20408;-83
2022/04/22 06:35:33;;;;;;;50.87;21.30;;;9.90;97.30;;;;;;5119885;28;20435;-82
2022/04/22 06:38:01;;;;;;;55.27;23.93;;;9.90;97.30;;;;;;5119616;28;20408;-83
2022/04/22 06:45:56;;;;;;;61.53;24.40;;;9.90;97.30;;;;;;5122425;28;20446;-83
2022/04/22 06:48:33;;;;;;;62.20;23.20;;;10.00;97.30;;;;;;5120766;28;20408;-83
2022/04/22 06:51:00;;;;;;;58.90;22.70;;;10.00;97.30;;;;;;5118156;28;20447;-83
2022/04/22 06:53:27;;;;;;;54.43;24.07;;;10.10;97.30;;;;;;5120402;28;20469;-83
2022/04/22 06:55:54;;;;;;;65.20;23.80;;;10.20;97.30;;;;;;5120575;28;20428;-83
2022/04/22 06:58:21;;;;;;;55.20;24.07;;;10.40;97.30;;;;;;5102398;28;20950;-83
2022/04/22 07:00:48;;;;;;;63.53;22.50;;;10.50;97.30;;;;;;5119164;28;20411;-83
2022/04/22 07:03:15;;;;;;;54.60;21.80;;;10.50;97.30;;;;;;5119656;28;20408;-83
2022/04/22 07:05:42;;;;;;;67.57;25.47;;;10.60;97.30;;;;;;5120730;28;20885;-82
2022/04/22 07:08:14;;;;;;;55.30;23.93;;;10.70;97.30;;;;;;5120417;28;20612;-83
2022/04/22 07:10:43;;;;;;;54.77;23.37;;;10.90;97.30;;;;;;5119792;28;20491;-83
2022/04/22 07:13:10;;;;;;;55.83;24.77;;;11.10;97.30;;;;;;5119861;28;20535;-83
2022/04/22 07:15:36;;;;;;;57.20;25.33;;;11.30;97.30;;;;;;5119764;28;20519;-82
2022/04/22 07:18:03;;;;;;;50.90;22.60;;;11.40;97.30;;;;;;5118338;28;20443;-83
2022/04/22 07:20:29;;;;;;;49.57;22.00;;;11.40;97.30;;;;;;5120541;28;20496;-83
2022/04/22 07:22:54;;;;;;;54.30;23.20;;;11.50;97.30;;;;;;5118149;28;20447;-83
2022/04/22 07:25:21;;;;;;;53.77;23.20;;;11.50;97.30;;;;;;5118680;28;20219;-84
2022/04/22 07:27:47;;;;;;;56.17;23.10;;;11.60;97.30;;;;;;5118741;28;20185;-83
2022/04/22 07:30:15;;;;;;;52.40;24.00;;;11.70;97.30;;;;;;5119899;28;20530;-83
2022/04/22 07:32:42;;;;;;;49.30;21.43;;;11.80;97.30;;;;;;5120200;28;20404;-84
2022/04/22 07:35:13;;;;;;;58.00;23.17;;;11.80;97.30;;;;;;5120557;28;20431;-84
2022/04/22 07:37:39;;;;;;;52.60;23.50;;;11.90;97.30;;;;;;5119060;28;20483;-83
2022/04/22 07:40:06;;;;;;;49.33;22.57;;;12.00;97.30;;;;;;5117923;28;20414;-84
2022/04/22 07:42:33;;;;;;;52.20;23.20;;;12.10;97.30;;;;;;5120005;28;20912;-83
2022/04/22 07:47:47;;;;;;;49.07;21.07;;;12.20;97.30;;;;;;5119713;28;20460;-83
2022/04/22 07:50:14;;;;;;;48.27;21.00;;;12.30;97.30;;;;;;5117955;28;20456;-83
2022/04/22 07:52:44;;;;;;;47.43;23.53;;;12.50;97.30;;;;;;5120708;28;21099;-84
2022/04/22 07:55:10;;;;;;;45.10;20.23;;;12.60;97.30;;;;;;5117875;28;21301;-83
2022/04/22 07:57:35;;;;;;;44.40;20.47;;;12.70;97.30;;;;;;5119423;28;20482;-83
2022/04/22 08:00:01;;;;;;;45.40;19.20;;;12.80;97.30;;;;;;5117894;28;20419;-83
2022/04/22 08:02:27;;;;;;;43.80;19.43;;;12.80;97.30;;;;;;5117683;28;20221;-83
2022/04/22 08:04:52;;;;;;;40.77;18.20;;;12.80;97.30;;;;;;5116504;28;20198;-83
2022/04/22 08:07:18;;;;;;;45.50;19.60;;;12.70;97.30;;;;;;5117214;28;20173;-83
2022/04/22 08:09:47;;;;;;;40.53;18.63;;;12.70;97.30;;;;;;5116887;28;20221;-83
2022/04/22 08:12:14;;;;;;;37.63;17.20;;;12.80;97.30;;;;;;5116779;28;20170;-84
2022/04/22 08:14:41;;;;;;;38.50;18.33;;;12.80;97.30;;;;;;5117374;28;20910;-83
2022/04/22 08:17:06;;;;;;;40.47;17.33;;;12.70;97.30;;;;;;5116874;28;20411;-83
2022/04/22 08:19:32;;;;;;;42.60;17.50;;;12.60;97.30;;;;;;5115976;28;20416;-84
2022/04/22 08:21:58;;;;;;;43.03;18.97;;;12.50;97.30;;;;;;5117640;28;20607;-84
2022/04/22 08:24:24;;;;;;;35.80;17.50;;;12.40;97.30;;;;;;5118438;28;20485;-84
2022/04/22 08:26:50;;;;;;;36.07;16.63;;;12.40;97.30;;;;;;5120660;28;20242;-83
2022/04/22 08:29:16;;;;;;;36.17;17.43;;;12.60;97.30;;;;;;5120441;28;20447;-84
2022/04/22 08:31:42;;;;;;;34.73;17.73;;;12.70;97.30;;;;;;5119790;28;20458;-84
2022/04/22 08:34:07;;;;;;;37.00;17.70;;;12.90;97.30;;;;;;5120490;28;20209;-84
2022/04/22 08:36:33;;;;;;;37.50;17.47;;;13.00;97.30;;;;;;5121841;28;20400;-84
2022/04/22 08:38:59;;;;;;;34.73;17.00;;;13.20;97.30;;;;;;5119687;28;20260;-83
2022/04/22 08:41:26;;;;;;;33.73;17.17;;;13.30;97.30;;;;;;5119319;28;20504;-83
2022/04/22 08:43:56;;;;;;;43.07;17.83;;;13.10;97.30;;;;;;5118781;28;20555;-84
2022/04/22 08:51:51;;;;;;;28.13;15.67;;;13.20;97.30;;;;;;5119434;28;20485;-84
2022/04/22 08:54:19;;;;;;;31.43;16.27;;;13.50;97.30;;;;;;5118490;28;20420;-84
2022/04/22 08:56:46;;;;;;;31.50;15.83;;;13.60;97.30;;;;;;5119032;28;20166;-83
2022/04/22 08:59:12;;;;;;;29.13;14.83;;;13.40;97.30;;;;;;5119027;28;20791;-83
2022/04/22 09:01:38;;;;;;;28.57;14.53;;;13.30;97.30;;;;;;5118731;28;20511;-84
2022/04/22 09:04:04;;;;;;;24.27;13.37;;;13.20;97.30;;;;;;5118755;28;20470;-83
2022/04/22 09:06:30;;;;;;;26.23;13.70;;;13.20;97.30;;;;;;5118453;28;20177;-84
2022/04/22 09:08:58;;;;;;;24.63;14.53;;;13.40;97.30;;;;;;5118892;28;20463;-84
2022/04/22 09:11:24;;;;;;;25.20;14.10;;;13.60;97.30;;;;;;5116595;28;20586;-84
2022/04/22 09:13:50;;;;;;;26.03;13.70;;;13.70;97.30;;;;;;5118388;28;20917;-84
2022/04/22 09:16:22;;;;;;;32.83;16.33;;;13.70;97.30;;;;;;5117979;28;20449;-83
2022/04/22 09:18:57;;;;;;;28.50;14.80;;;13.70;97.30;;;;;;5117291;28;20670;-84
2022/04/22 09:21:24;;;;;;;22.53;13.43;;;13.60;97.30;;;;;;5117045;28;20419;-84
2022/04/22 09:23:50;;;;;;;25.27;14.50;;;13.50;97.30;;;;;;5116635;28;20805;-84
2022/04/22 09:26:30;;;;;;;24.73;13.27;;;13.80;97.30;;;;;;5115762;28;20431;-84
2022/04/22 09:28:58;;;;;;;25.07;14.47;;;14.00;97.30;;;;;;5117078;28;20503;-84
2022/04/22 09:31:25;;;;;;;25.13;13.50;;;14.00;97.30;;;;;;5115611;28;20942;-84
2022/04/22 09:33:51;;;;;;;28.57;14.80;;;14.00;97.30;;;;;;5116020;28;20419;-84
2022/04/22 09:44:56;;;;;;;23.03;12.10;;;15.10;97.00;;;;;;5116673;28;20465;-84
2022/04/22 09:47:25;;;;;;;23.87;12.90;;;15.40;97.00;;;;;;5114402;28;20419;-84
2022/04/22 09:49:51;;;;;;;23.67;12.40;;;15.50;95.70;;;;;;5114945;28;20925;-85
2022/04/22 09:52:25;;;;;;;25.10;13.37;;;15.40;95.20;;;;;;5114874;28;20432;-84
2022/04/22 09:54:56;;;;;;;23.20;12.53;;;15.20;95.20;;;;;;5113987;28;20188;-84
2022/04/22 09:57:21;;;;;;;29.13;13.30;;;15.00;95.10;;;;;;5113981;28;20893;-85
2022/04/22 09:59:47;;;;;;;23.33;12.00;;;15.10;96.00;;;;;;5114313;28;20464;-85
2022/04/22 10:02:19;;;;;;;24.33;11.67;;;15.20;96.00;;;;;;5114227;28;20176;-83
2022/04/22 10:04:44;;;;;;;17.33;10.00;;;15.30;95.30;;;;;;5115841;28;20193;-84
2022/04/22 10:07:11;;;;;;;16.63;9.90;;;14.90;94.60;;;;;;5115433;28;20791;-84
2022/04/22 10:09:39;;;;;;;19.50;10.00;;;14.80;95.40;;;;;;5115087;28;20228;-84
2022/04/22 10:12:09;;;;;;;17.57;9.77;;;14.80;95.60;;;;;;5115248;28;20424;-84
2022/04/22 10:14:38;;;;;;;19.70;10.40;;;14.90;95.20;;;;;;5117162;28;20445;-84
2022/04/22 10:17:05;;;;;;;20.70;10.90;;;15.00;94.70;;;;;;5114907;28;20628;-84
2022/04/22 10:19:35;;;;;;;19.33;11.20;;;15.00;95.70;;;;;;5117093;28;20829;-84
2022/04/22 10:22:05;;;;;;;20.33;10.50;;;15.20;96.10;;;;;;5114875;28;20408;-84
2022/04/22 10:24:31;;;;;;;21.10;10.80;;;15.50;96.20;;;;;;5116595;28;20436;-84
2022/04/22 10:27:07;;;;;;;23.00;11.17;;;15.60;95.00;;;;;;5114580;28;20446;-84
2022/04/22 10:29:34;;;;;;;21.67;11.97;;;15.60;94.20;;;;;;5115276;28;20920;-84
2022/04/22 10:32:03;;;;;;;20.30;11.87;;;15.70;94.40;;;;;;5116027;28;20765;-84
2022/04/22 10:34:39;;;;;;;22.57;12.90;;;15.70;95.50;;;;;;5115478;28;20476;-84
2022/04/22 10:37:05;;;;;;;22.93;11.17;;;15.50;93.70;;;;;;5114352;28;20419;-84
2022/04/22 10:39:33;;;;;;;24.17;12.67;;;15.30;95.00;;;;;;5114429;28;20418;-84
2022/04/22 10:41:59;;;;;;;25.47;12.93;;;15.20;95.30;;;;;;5114222;28;20503;-84
2022/04/22 10:47:15;;;;;;;18.77;12.10;;;15.30;96.40;;;;;;5115366;28;20181;-84
2022/04/22 10:49:45;;;;;;;26.53;13.33;;;15.30;94.80;;;;;;5116418;28;20416;-83
2022/04/22 10:52:14;;;;;;;22.40;13.50;;;15.30;95.90;;;;;;5115807;28;20942;-84
2022/04/22 10:54:52;;;;;;;22.70;12.73;;;15.60;96.00;;;;;;5115209;28;20427;-84
2022/04/22 10:57:23;;;;;;;22.20;12.87;;;15.70;94.70;;;;;;5115242;28;20403;-84
2022/04/22 11:00:07;;;;;;;25.10;12.77;;;15.60;94.20;;;;;;5115002;28;20426;-84
2022/04/22 11:02:35;;;;;;;23.03;13.73;;;15.60;95.30;;;;;;5115382;28;20415;-84
2022/04/22 11:05:19;;;;;;;23.57;13.80;;;15.40;94.00;;;;;;5114447;28;20848;-84
2022/04/22 11:07:51;;;;;;;19.90;12.33;;;15.30;95.00;;;;;;5114507;28;20428;-84
2022/04/22 11:10:17;;;;;;;25.50;14.10;;;15.30;95.20;;;;;;5114505;28;20707;-84
2022/04/22 11:13:24;;;;;;;20.30;12.77;;;15.20;94.80;;;;;;5114768;28;20412;-84
2022/04/22 11:15:51;;;;;;;25.17;13.63;;;15.20;95.20;;;;;;5114912;28;20947;-84
2022/04/22 11:18:18;;;;;;;25.30;12.67;;;15.10;95.80;;;;;;5114732;28;20419;-84
2022/04/22 11:20:44;;;;;;;24.03;12.40;;;15.30;96.20;;;;;;5114284;28;20419;-84
2022/04/22 11:23:14;;;;;;;25.40;13.73;;;15.50;95.30;;;;;;5114240;28;20434;-84
2022/04/22 11:25:41;;;;;;;20.53;12.60;;;15.70;95.80;;;;;;5114384;28;20435;-84
2022/04/22 11:28:07;;;;;;;25.23;13.23;;;15.90;94.20;;;;;;5113914;28;20500;-84
2022/04/22 11:30:34;;;;;;;23.23;12.47;;;15.80;94.40;;;;;;5113658;28;20455;-84
2022/04/22 11:33:11;;;;;;;22.13;13.67;;;15.70;94.50;;;;;;5113904;28;20491;-84
2022/04/22 11:35:37;;;;;;;22.67;14.03;;;15.80;94.40;;;;;;5112966;28;20446;-85
2022/04/22 11:38:04;;;;;;;26.20;14.00;;;15.90;93.90;;;;;;5113085;28;20900;-85
2022/04/22 11:40:35;;;;;;;23.63;14.27;;;15.70;94.10;;;;;;5114585;28;20612;-85
2022/04/22 11:43:08;;;;;;;21.23;14.33;;;15.70;94.60;;;;;;5113354;28;20415;-85
2022/04/22 11:45:39;;;;;;;26.60;14.37;;;15.60;93.60;;;;;;5114115;28;20436;-85
2022/04/22 11:48:13;;;;;;;24.97;15.70;;;15.60;94.50;;;;;;5112458;28;20425;-85
2022/04/22 11:50:40;;;;;;;26.00;14.50;;;15.60;94.70;;;;;;5112272;28;20992;-85
2022/04/22 11:53:16;;;;;;;26.23;13.97;;;15.60;94.60;;;;;;5114113;28;20407;-84
2022/04/22 11:55:43;;;;;;;27.40;13.83;;;15.70;94.90;;;;;;5113100;28;20427;-85
2022/04/22 11:58:13;;;;;;;26.17;15.73;;;16.00;94.10;;;;;;5114086;28;20400;-85
2022/04/22 12:06:16;;;;;;;23.50;14.90;;;15.90;93.50;;;;;;5119036;28;20399;-85
2022/04/22 12:08:51;;;;;;;20.37;13.90;;;15.90;93.90;;;;;;5117357;28;20462;-84
2022/04/22 12:11:17;;;;;;;19.47;13.03;;;15.80;93.30;;;;;;5116883;28;20455;-85
2022/04/22 12:13:45;;;;;;;25.37;14.87;;;15.90;93.50;;;;;;5117037;28;20415;-84
2022/04/22 12:16:11;;;;;;;24.17;15.50;;;15.80;93.60;;;;;;5116912;28;20265;-84
2022/04/22 12:18:37;;;;;;;24.90;14.20;;;15.90;94.10;;;;;;5116829;28;20752;-84
2022/04/22 12:21:07;;;;;;;19.97;13.50;;;16.10;93.80;;;;;;5117203;28;20173;-82
2022/04/22 12:23:41;;;;;;;24.93;13.57;;;16.70;94.50;;;;;;5117496;28;20437;-83
2022/04/22 12:26:20;;;;;;;25.50;14.37;;;17.30;92.40;;;;;;5103966;28;20417;-83
2022/04/22 12:29:15;;;;;;;21.23;13.77;;;17.40;91.00;;;;;;5111226;28;20430;-85
2022/04/22 12:31:47;;;;;;;23.87;14.80;;;17.10;90.50;;;;;;5101186;28;21049;-85
2022/04/22 12:34:15;;;;;;;25.40;15.63;;;16.70;91.80;;;;;;5100817;28;20426;-85
2022/04/22 12:36:56;;;;;;;25.23;14.50;;;16.60;91.50;;;;;;5108989;28;20397;-86
2022/04/22 12:39:32;;;;;;;25.10;13.60;;;16.70;92.00;;;;;;5107522;28;20479;-86
2022/04/22 12:41:57;;;;;;;21.10;12.83;;;16.70;92.70;;;;;;5104494;28;20469;-86
2022/04/22 12:44:23;;;;;;;23.33;13.73;;;16.80;92.30;;;;;;5104247;28;20436;-86
2022/04/22 12:52:25;;;;;;;24.03;13.47;;;16.90;91.30;;;;;;5109413;28;20565;-83
2022/04/22 12:55:00;;;;;;;23.30;13.43;;;16.60;91.50;;;;;;5108027;27;20438;-83
2022/04/22 12:57:25;;;;;;;25.83;15.00;;;16.50;92.60;;;;;;5115221;27;20555;-83
2022/04/22 12:59:56;;;;;;;25.60;13.73;;;16.90;92.90;;;;;;5113909;28;20443;-83
2022/04/22 13:02:29;;;;;;;22.57;12.90;;;16.80;91.20;;;;;;5127490;27;20182;-82
2022/04/22 13:05:05;;;;;;;20.93;12.50;;;16.40;91.70;;;;;;5117523;27;20439;-83
2022/04/22 13:07:50;;;;;;;21.17;12.70;;;16.20;92.60;;;;;;5106715;28;20442;-84
2022/04/22 13:10:20;;;;;;;21.00;11.53;;;16.50;92.60;;;;;;5114197;28;20988;-82
2022/04/22 13:12:47;;;;;;;22.83;11.63;;;17.00;93.10;;;;;;5115413;28;20415;-83
2022/04/22 13:15:18;;;;;;;19.90;13.03;;;17.40;91.60;;;;;;5113895;28;20441;-84
2022/04/22 13:17:45;;;;;;;19.40;11.17;;;17.70;90.10;;;;;;5113868;28;20435;-83
2022/04/22 13:20:12;;;;;;;21.03;11.93;;;17.90;90.50;;;;;;5113720;28;20945;-84
2022/04/22 13:22:39;;;;;;;20.47;10.90;;;;;;;;;;5114067;28;20782;-84
2022/04/22 13:25:06;;;;;;;16.30;9.40;;;18.50;86.90;;;;;;5114866;28;20491;-84
2022/04/22 13:27:31;;;;;;;19.37;10.40;;;18.70;85.00;;;;;;5114761;28;20480;-83
2022/04/22 13:29:57;;;;;;;17.17;9.93;;;19.10;85.20;;;;;;5114269;28;20455;-82
2022/04/22 13:32:23;;;;;;;20.40;11.20;;;19.20;84.00;;;;;;5117226;27;20181;-83
2022/04/22 13:34:48;;;;;;;18.23;11.50;;;19.10;83.80;;;;;;5117366;28;20434;-82
2022/04/22 13:37:14;;;;;;;19.90;11.30;;;18.40;84.30;;;;;;5115399;28;20359;-83
2022/04/22 13:39:39;;;;;;;18.97;11.77;;;17.80;86.10;;;;;;5115156;28;20186;-83
2022/04/22 13:42:05;;;;;;;23.40;11.80;;;17.20;86.70;;;;;;5114483;28;20546;-83
2022/04/22 13:52:44;;;;;;;19.47;11.43;;;16.40;88.50;;;;;;5115684;28;20406;-83
2022/04/22 13:55:10;;;;;;;25.73;14.30;;;16.40;90.10;;;;;;5114993;28;20428;-83
2022/04/22 13:57:36;;;;;;;21.47;12.63;;;16.30;90.00;;;;;;5103938;22;20332;-79